Latest Weather Observations for Adelaide (Kent Town)

IDS60901

Issued at 9:51 pm CDT Thursday 18 October 2018 (issued every 10 minutes, with the page automatically refreshed every 10 minutes)

About weather observations | Map of Adelaide area stations | Latest observations for Adelaide area | Other Formats
Station Details ID: 023090 Name: KENT TOWN Lat: -34.92 Lon: 138.62 Height: 48.0 m
Data from the previous 72 hours. | See also: Recent months at Adelaide (Kent Town)
Date/Time
CDT
Temp
°C
App
Temp
°C
Dew
Point
°C
Rel
Hum
%
Delta-T
°C
Wind Press
QNH
hPa
Press
MSL
hPa
Rain since
9am
mm
Dir  Spd
km/h
Gust
km/h
Spd
kts
Gust
kts
18/09:30pm 13.5 13.6 10.0 79 1.8 CALM 0 0 0 0 1014.8 1014.7 0.0
18/09:00pm 14.3 14.3 9.9 75 2.3 CALM 0 0 0 0 1014.7 1014.6 0.0
18/08:30pm 15.5 14.8 10.0 70 2.9 ESE 4 7 2 4 1014.4 1014.3 0.0
18/08:00pm 16.4 15.0 9.5 63 3.6 ESE 7 11 4 6 1014.4 1014.3 0.0
18/07:30pm 17.7 17.5 9.1 57 4.5 CALM 0 0 0 0 1014.7 1014.6 0.0
18/07:00pm 19.4 18.9 7.7 46 6.0 CALM 0 0 0 0 1014.5 1014.4 0.0
18/06:30pm 20.0 18.7 5.9 39 7.0 NE 2 7 1 4 1014.6 1014.5 0.0
18/06:00pm 20.5 18.9 6.4 40 7.1 NNW 4 7 2 4 1014.7 1014.6 0.0
18/05:30pm 20.5 18.7 5.6 37 7.4 NE 4 7 2 4 1015.0 1015.0 0.0
18/05:00pm 19.9 17.4 4.9 37 7.3 NNW 7 13 4 7 1015.1 1015.1 0.0
18/04:30pm 19.2 17.1 5.8 41 6.6 NE 6 9 3 5 1015.3 1015.3 0.0
18/04:00pm 19.8 18.1 9.9 53 5.3 WNW 9 17 5 9 1015.8 1015.8 0.0
18/03:30pm 18.2 16.5 8.3 52 5.1 NNW 7 13 4 7 1016.0 1016.0 0.0
18/03:00pm 18.2 16.4 9.5 57 4.6 WSW 9 15 5 8 1016.4 1016.4 0.0
18/02:30pm 16.8 15.6 9.5 62 3.8 WSW 6 13 3 7 1016.5 1016.5 0.0
18/02:00pm 16.1 14.9 9.6 65 3.4 NNW 6 13 3 7 1017.0 1017.0 0.0
18/01:30pm 15.0 14.6 9.8 71 2.7 W 2 9 1 5 1017.2 1017.2 0.0
18/01:00pm 13.9 12.8 9.8 76 2.1 NW 6 11 3 6 1017.9 1017.9 0.0
18/12:30pm 13.7 12.5 10.4 80 1.7 NNW 7 11 4 6 1018.2 1018.2 0.0
18/12:00pm 13.2 12.1 9.9 80 1.7 NW 6 9 3 5 1018.4 1018.4 0.0
18/11:30am 13.0 11.3 9.9 81 1.6 NW 9 11 5 6 1018.6 1018.6 0.0
18/11:00am 12.9 11.6 10.0 82 1.5 NW 7 11 4 6 1018.9 1018.9 0.0
18/10:30am 13.0 11.5 10.5 85 1.3 NW 9 13 5 7 1019.0 1019.0 0.0
18/10:00am 12.9 11.6 11.2 89 0.9 W 9 15 5 8 1019.1 1019.1 0.0
18/09:30am 12.2 11.3 10.7 90 0.8 NW 6 9 3 5 1019.0 1019.0 0.0
18/09:00am 12.0 11.1 10.8 92 0.6 NW 6 9 3 5 1019.0 1019.0 2.4
18/08:30am 11.7 12.0 10.9 95 0.4 CALM 0 6 0 3 1018.8 1018.8 2.2
18/08:00am 11.5 11.4 10.7 95 0.4 S 2 7 1 4 1018.4 1018.4 2.0
18/07:30am 11.4 11.2 10.6 95 0.4 SSW 2 6 1 3 1018.0 1018.0 2.0
18/07:00am 11.4 11.6 10.4 94 0.5 CALM 0 0 0 0 1017.8 1017.8 1.8
18/06:30am 11.3 10.8 10.7 96 0.3 SSW 4 7 2 4 1017.3 1017.3 1.8
18/06:00am 11.5 11.4 10.9 96 0.3 WSW 2 11 1 6 1017.0 1017.0 1.6
18/05:30am 11.6 11.8 10.6 94 0.5 CALM 0 0 0 0 1016.9 1016.9 1.4
18/05:00am 11.6 10.5 10.0 90 0.8 WSW 6 7 3 4 1016.9 1016.9 1.4
18/04:30am 11.8 10.7 10.0 89 0.9 WSW 6 9 3 5 1016.9 1016.9 1.4
18/04:00am 11.8 10.7 10.0 89 0.9 SW 6 11 3 6 1016.8 1016.8 1.4
18/03:30am 11.8 10.6 10.4 91 0.7 WSW 7 11 4 6 1016.9 1016.9 1.4
18/03:00am 11.8 10.8 10.2 90 0.8 WSW 6 9 3 5 1016.9 1016.9 1.4
18/02:30am 11.9 10.9 10.3 90 0.8 SW 6 11 3 6 1017.0 1017.0 1.4
18/02:00am 11.9 10.4 10.7 92 0.6 WSW 9 15 5 8 1017.3 1017.3 1.4
18/01:30am 12.3 12.7 11.4 94 0.5 CALM 0 9 0 5 1017.5 1017.5 1.2
18/01:00am 12.2 11.5 11.4 95 0.4 SW 6 9 3 5 1017.8 1017.8 1.2
18/12:30am 12.4 11.8 11.6 95 0.4 SW 6 11 3 6 1018.0 1018.0 1.2
18/12:00am 12.5 12.6 11.6 94 0.5 SSW 2 7 1 4 1018.0 1018.0 1.2
 
Date/Time
CDT
Temp
°C
App
Temp
°C
Dew
Point
°C
Rel
Hum
%
Delta-T
°C
Wind Press
QNH
hPa
Press
MSL
hPa
Rain since
9am
mm
Dir  Spd
km/h
Gust
km/h
Spd
kts
Gust
kts
17/11:30pm 12.5 13.0 11.7 95 0.4 CALM 0 0 0 0 1018.2 1018.2 1.0
17/11:00pm 12.5 13.0 11.7 95 0.4 CALM 0 6 0 3 1018.5 1018.5 1.0
17/10:30pm 12.5 12.3 11.7 95 0.4 SSW 4 9 2 5 1018.7 1018.7 1.0
17/10:00pm 12.7 11.9 11.8 94 0.5 SW 7 13 4 7 1018.8 1018.8 0.8
17/09:30pm 12.9 11.7 11.6 92 0.7 SW 9 15 5 8 1018.8 1018.8 0.6
17/09:00pm 13.3 11.9 10.8 85 1.3 SW 9 19 5 10 1018.7 1018.7 0.4
17/08:30pm 13.2 11.4 10.9 86 1.2 WSW 11 19 6 10 1018.6 1018.6 0.4
17/08:00pm 12.9 11.6 11.4 91 0.8 WSW 9 17 5 9 1018.6 1018.6 0.4
17/07:30pm 13.4 11.9 10.7 84 1.4 WSW 9 17 5 9 1018.3 1018.3 0.4
17/07:00pm 13.8 11.5 10.5 80 1.7 W 13 20 7 11 1018.2 1018.2 0.4
17/06:30pm 13.8 11.1 10.3 79 1.8 WSW 15 22 8 12 1018.1 1018.1 0.4
17/06:00pm 14.1 11.1 10.5 79 1.9 WSW 17 24 9 13 1017.8 1017.8 0.4
17/05:30pm 14.1 11.1 10.5 79 1.9 W 17 26 9 14 1017.8 1017.8 0.4
17/05:00pm 14.2 12.4 10.8 80 1.8 WSW 11 19 6 10 1017.9 1017.9 0.4
17/04:30pm 14.1 11.9 10.9 81 1.7 WSW 13 24 7 13 1017.9 1017.9 0.4
17/04:00pm 13.9 11.3 10.7 81 1.7 WSW 15 22 8 12 1018.1 1018.1 0.4
17/03:30pm 14.3 11.6 10.5 78 2.0 WSW 15 26 8 14 1018.2 1018.2 0.4
17/03:00pm 14.3 11.6 10.3 77 2.1 WSW 15 24 8 13 1018.4 1018.4 0.4
17/02:30pm 14.4 11.0 10.4 77 2.1 W 19 30 10 16 1018.6 1018.6 0.4
17/02:00pm 14.2 11.0 10.0 76 2.2 WSW 17 24 9 13 1018.9 1018.9 0.4
17/01:30pm 14.2 11.5 10.4 78 2.0 W 15 26 8 14 1018.9 1018.9 0.4
17/01:00pm 13.9 10.8 10.2 78 1.9 WSW 17 28 9 15 1019.1 1019.1 0.4
17/12:30pm 13.4 10.4 10.7 84 1.4 WSW 17 26 9 14 1019.2 1019.2 0.4
17/12:00pm 13.2 11.2 11.5 89 0.9 W 13 20 7 11 1019.4 1019.4 0.4
17/11:30am 13.1 11.3 12.2 94 0.5 W 13 26 7 14 1019.6 1019.6 0.4
17/11:00am 12.8 10.6 12.1 95 0.4 WSW 15 22 8 12 1019.9 1019.9 0.4
17/10:30am 12.9 10.6 11.8 93 0.6 WSW 15 26 8 14 1020.0 1020.0 0.2
17/10:00am 13.3 11.5 12.2 93 0.6 WSW 13 22 7 12 1019.8 1019.8 0.2
17/09:30am 12.7 10.8 11.8 94 0.5 WSW 13 20 7 11 1019.6 1019.6 0.2
17/09:00am 12.5 10.6 11.7 95 0.4 WSW 13 24 7 13 1019.4 1019.4 6.0
17/08:30am 12.4 10.8 11.6 95 0.4 WSW 11 17 6 9 1019.1 1019.1 5.8
17/08:00am 12.4 11.6 11.8 96 0.3 WSW 7 13 4 7 1018.8 1018.8 5.4
17/07:30am 12.3 10.4 11.9 97 0.2 WSW 13 22 7 12 1018.6 1018.6 5.2
17/07:00am 12.3 11.1 11.7 96 0.3 WSW 9 19 5 10 1018.3 1018.3 4.8
17/06:30am 12.2 10.2 11.4 95 0.4 WSW 13 22 7 12 1017.9 1017.9 4.4
17/06:00am 12.4 11.5 11.5 94 0.5 WSW 7 15 4 8 1017.8 1017.8 4.0
17/05:30am 12.7 11.8 11.2 91 0.8 WSW 7 13 4 7 1017.4 1017.4 3.8
17/05:00am 12.9 10.8 11.2 89 0.9 WSW 13 22 7 12 1017.4 1017.4 3.6
17/04:30am 12.7 10.7 11.4 92 0.7 WSW 13 22 7 12 1017.3 1017.3 3.6
17/04:00am 12.9 10.9 11.4 91 0.8 WSW 13 20 7 11 1017.4 1017.4 3.4
17/03:30am 12.9 11.6 11.2 89 0.9 WSW 9 20 5 11 1017.3 1017.3 3.2
17/03:00am 12.8 11.1 11.3 91 0.8 W 11 19 6 10 1017.3 1017.3 3.2
17/02:30am 12.9 10.8 11.2 89 0.9 WSW 13 20 7 11 1017.2 1017.2 3.2
17/02:00am 13.0 10.6 11.3 89 0.9 WSW 15 28 8 15 1017.3 1017.3 3.2
17/01:30am 12.9 10.5 11.4 91 0.8 WSW 15 22 8 12 1017.5 1017.5 3.2
17/01:00am 12.8 10.4 11.5 92 0.7 WSW 15 30 8 16 1017.6 1017.6 3.2
17/12:30am 12.7 11.6 12.0 95 0.4 WSW 9 13 5 7 1017.7 1017.7 3.2
17/12:00am 12.7 10.9 12.0 95 0.4 W 13 26 7 14 1018.0 1018.0 3.2
 
Date/Time
CDT
Temp
°C
App
Temp
°C
Dew
Point
°C
Rel
Hum
%
Delta-T
°C
Wind Press
QNH
hPa
Press
MSL
hPa
Rain since
9am
mm
Dir  Spd
km/h
Gust
km/h
Spd
kts
Gust
kts
16/11:30pm 12.6 10.3 11.8 95 0.4 WSW 15 24 8 13 1018.1 1018.1 2.8
16/11:00pm 12.8 10.2 11.9 94 0.5 WSW 17 28 9 15 1018.1 1018.1 2.4
16/10:30pm 13.2 11.7 11.9 92 0.7 WSW 11 19 6 10 1018.0 1018.0 2.0
16/10:00pm 13.5 11.3 12.2 92 0.7 W 15 24 8 13 1018.0 1018.0 1.8
16/09:30pm 13.8 11.1 11.7 87 1.1 W 17 28 9 15 1017.9 1017.9 1.6
16/09:00pm 13.6 12.2 12.1 91 0.8 W 11 22 6 12 1017.6 1017.6 1.6
16/08:30pm 13.9 12.0 11.9 88 1.1 W 13 24 7 13 1017.3 1017.3 1.6
16/08:00pm 13.8 10.7 11.6 86 1.2 W 19 33 10 18 1017.0 1017.0 1.6
16/07:30pm 14.2 11.4 11.2 82 1.6 W 17 30 9 16 1016.6 1016.6 1.6
16/07:00pm 14.3 11.1 11.3 82 1.6 W 19 32 10 17 1016.2 1016.2 1.6
16/06:30pm 14.4 11.2 11.4 82 1.6 W 19 35 10 19 1015.8 1015.8 1.6
16/06:00pm 14.6 11.2 11.2 80 1.8 W 20 32 11 17 1015.5 1015.5 1.6
16/05:30pm 14.8 11.4 11.2 79 1.9 W 20 35 11 19 1015.2 1015.2 1.6
16/05:00pm 14.9 11.7 11.2 78 2.0 W 19 33 10 18 1014.9 1014.8 1.6
16/04:30pm 14.9 11.7 11.2 78 2.0 W 19 35 10 19 1014.8 1014.7 1.6
16/04:00pm 15.0 11.7 11.5 79 1.9 W 20 32 11 17 1014.6 1014.5 1.6
16/03:30pm 14.9 11.8 11.6 80 1.8 W 19 32 10 17 1014.7 1014.6 1.6
16/03:00pm 15.7 12.6 12.2 80 1.9 WSW 20 35 11 19 1014.6 1014.5 1.6
16/02:30pm 15.2 11.7 12.3 83 1.6 W 22 39 12 21 1014.7 1014.6 1.6
16/02:00pm 14.9 12.3 13.1 89 1.0 WSW 19 33 10 18 1014.9 1014.8 1.6
16/01:30pm 15.3 13.0 13.1 87 1.2 W 17 28 9 15 1014.9 1014.8 1.6
16/01:00pm 16.1 13.4 12.9 81 1.8 W 19 32 10 17 1014.7 1014.6 1.6
16/12:30pm 15.2 12.5 13.4 89 1.0 W 20 37 11 20 1014.9 1014.8 1.6
16/12:00pm 14.6 11.9 13.5 93 0.6 W 20 33 11 18 1015.0 1015.0 1.6
16/11:30am 14.5 11.8 13.4 93 0.6 W 20 32 11 17 1015.0 1015.0 1.6
16/11:00am 14.2 11.6 13.1 93 0.6 W 19 28 10 15 1014.8 1014.7 1.2
16/10:30am 14.0 12.1 12.9 93 0.6 W 15 26 8 14 1014.7 1014.6 0.8
16/10:00am 13.8 12.2 12.9 94 0.5 WNW 13 20 7 11 1014.6 1014.5 0.8
16/09:30am 13.7 12.9 12.8 94 0.5 W 9 20 5 11 1014.4 1014.3 0.6
16/09:00am 13.7 11.6 12.4 92 0.7 W 15 26 8 14 1014.0 1013.9 2.6
16/08:30am 13.7 11.7 12.6 93 0.6 WNW 15 28 8 15 1013.7 1013.6 2.2
16/08:00am 13.7 11.6 12.4 92 0.7 W 15 28 8 15 1013.2 1013.1 1.8
16/07:30am 13.6 11.2 12.5 93 0.6 W 17 30 9 16 1012.9 1012.8 1.8
16/07:00am 13.8 11.8 12.7 93 0.6 WNW 15 24 8 13 1012.5 1012.4 1.6
16/06:30am 13.7 11.7 12.8 94 0.5 WNW 15 24 8 13 1011.9 1011.8 1.6
16/06:00am 13.7 11.0 12.8 94 0.5 W 19 35 10 19 1011.6 1011.5 1.6
16/05:30am 13.7 11.8 13.0 96 0.4 WNW 15 26 8 14 1011.2 1011.1 1.2
16/05:00am 13.9 11.5 12.8 93 0.6 WNW 17 32 9 17 1010.8 1010.7 0.6
16/04:30am 14.0 12.1 12.9 93 0.6 WNW 15 28 8 15 1010.2 1010.1 0.6
16/04:00am 14.3 12.5 13.2 93 0.6 WNW 15 24 8 13 1010.0 1009.9 0.2
16/03:30am 14.7 11.8 12.3 85 1.3 WNW 19 33 10 18 1009.9 1009.8 0.0
16/03:00am 14.8 11.8 12.0 83 1.5 NW 19 30 10 16 1009.6 1009.5 0.0
16/02:30am 15.0 13.3 12.4 84 1.4 NW 13 32 7 17 1009.4 1009.3 0.0
16/02:00am 15.1 12.2 12.2 83 1.6 NW 19 41 10 22 1009.2 1009.1 0.0
16/01:30am 15.9 13.8 12.3 79 2.0 NW 15 22 8 12 1009.2 1009.1 0.0
16/01:00am 16.0 13.2 12.6 80 1.9 NW 19 30 10 16 1009.4 1009.3 0.0
16/12:30am 16.5 15.0 13.1 80 1.9 NW 13 20 7 11 1009.6 1009.5 0.0
16/12:00am 16.9 14.5 12.8 77 2.3 NNW 17 26 9 14 1009.3 1009.2 0.0
 
Date/Time
CDT
Temp
°C
App
Temp
°C
Dew
Point
°C
Rel
Hum
%
Delta-T
°C
Wind Press
QNH
hPa
Press
MSL
hPa
Rain since
9am
mm
Dir  Spd
km/h
Gust
km/h
Spd
kts
Gust
kts
15/11:30pm 17.4 15.6 12.0 70 3.0 NNW 13 24 7 13 1009.5 1009.4 0.0
15/11:00pm 17.7 15.9 10.9 64 3.7 NW 11 24 6 13 1009.0 1008.9 0.0
15/10:30pm 17.9 16.8 10.7 62 3.9 NW 7 11 4 6 1009.0 1008.9 0.0
15/10:00pm 18.2 17.1 10.8 62 4.0 WNW 7 11 4 6 1009.0 1008.9 0.0

Latest Capital City Observations: Canberra | Sydney | Melbourne | Brisbane | Adelaide | Perth | Hobart | Darwin

Other Formats:

Comma delimited format used in spreadsheet applications
http://www.bom.gov.au/fwo/IDS60901/IDS60901.94675.axf

JavaScript Object Notation format (JSON) in row-major order
http://www.bom.gov.au/fwo/IDS60901/IDS60901.94675.json